sensor_id;sensor_type;location;lat;lon;timestamp;temperature;humidity
67603;DHT22;54417;47.454;18.918;2023-07-13T00:01:19;23.40;76.62
67603;DHT22;54417;47.454;18.918;2023-07-13T00:06:28;23.37;76.18
67603;DHT22;54417;47.454;18.918;2023-07-13T00:11:39;23.47;73.28
67603;DHT22;54417;47.454;18.918;2023-07-13T00:16:47;23.58;69.96
67603;DHT22;54417;47.454;18.918;2023-07-13T00:21:56;23.67;68.04
67603;DHT22;54417;47.454;18.918;2023-07-13T00:27:01;23.85;64.75
67603;DHT22;54417;47.454;18.918;2023-07-13T00:32:10;24.05;63.82
67603;DHT22;54417;47.454;18.918;2023-07-13T00:37:18;24.08;62.40
67603;DHT22;54417;47.454;18.918;2023-07-13T00:42:29;24.09;61.76
67603;DHT22;54417;47.454;18.918;2023-07-13T00:47:38;23.85;63.46
67603;DHT22;54417;47.454;18.918;2023-07-13T00:52:48;23.60;65.80
67603;DHT22;54417;47.454;18.918;2023-07-13T00:57:59;23.39;66.46
67603;DHT22;54417;47.454;18.918;2023-07-13T01:03:07;23.17;67.17
67603;DHT22;54417;47.454;18.918;2023-07-13T01:08:12;23.03;68.73
67603;DHT22;54417;47.454;18.918;2023-07-13T01:13:16;22.85;67.85
67603;DHT22;54417;47.454;18.918;2023-07-13T01:18:25;22.83;70.01
67603;DHT22;54417;47.454;18.918;2023-07-13T01:23:36;22.69;70.87
67603;DHT22;54417;47.454;18.918;2023-07-13T01:28:45;22.58;72.04
67603;DHT22;54417;47.454;18.918;2023-07-13T01:33:54;22.25;74.04
67603;DHT22;54417;47.454;18.918;2023-07-13T01:39:01;22.16;75.72
67603;DHT22;54417;47.454;18.918;2023-07-13T01:44:09;22.10;76.59
67603;DHT22;54417;47.454;18.918;2023-07-13T01:49:18;21.93;77.35
67603;DHT22;54417;47.454;18.918;2023-07-13T01:54:27;21.62;78.57
67603;DHT22;54417;47.454;18.918;2023-07-13T01:59:36;21.43;79.51
67603;DHT22;54417;47.454;18.918;2023-07-13T02:04:46;21.31;79.76
67603;DHT22;54417;47.454;18.918;2023-07-13T02:09:56;21.07;79.43
67603;DHT22;54417;47.454;18.918;2023-07-13T02:15:05;20.98;79.70
67603;DHT22;54417;47.454;18.918;2023-07-13T02:20:09;20.83;80.05
67603;DHT22;54417;47.454;18.918;2023-07-13T02:25:19;20.63;80.00
67603;DHT22;54417;47.454;18.918;2023-07-13T02:30:28;20.44;79.41
67603;DHT22;54417;47.454;18.918;2023-07-13T02:35:38;20.30;79.45
67603;DHT22;54417;47.454;18.918;2023-07-13T02:40:48;20.21;79.74
67603;DHT22;54417;47.454;18.918;2023-07-13T02:45:59;20.15;80.02
67603;DHT22;54417;47.454;18.918;2023-07-13T02:51:15;20.18;80.52
67603;DHT22;54417;47.454;18.918;2023-07-13T02:56:26;20.02;81.08
67603;DHT22;54417;47.454;18.918;2023-07-13T03:01:34;19.86;81.50
67603;DHT22;54417;47.454;18.918;2023-07-13T03:06:43;19.92;82.02
67603;DHT22;54417;47.454;18.918;2023-07-13T03:11:54;19.92;84.15
67603;DHT22;54417;47.454;18.918;2023-07-13T03:17:09;20.04;84.93
67603;DHT22;54417;47.454;18.918;2023-07-13T03:22:20;20.21;84.73
67603;DHT22;54417;47.454;18.918;2023-07-13T03:27:30;20.28;85.00
67603;DHT22;54417;47.454;18.918;2023-07-13T03:32:39;20.49;84.74
67603;DHT22;54417;47.454;18.918;2023-07-13T03:37:48;20.63;84.19
67603;DHT22;54417;47.454;18.918;2023-07-13T03:43:01;20.83;83.30
67603;DHT22;54417;47.454;18.918;2023-07-13T03:48:11;21.04;82.56
67603;DHT22;54417;47.454;18.918;2023-07-13T03:53:20;21.17;79.78
67603;DHT22;54417;47.454;18.918;2023-07-13T03:58:31;21.25;79.59
67603;DHT22;54417;47.454;18.918;2023-07-13T04:03:43;21.39;80.39
67603;DHT22;54417;47.454;18.918;2023-07-13T04:08:54;21.38;81.39
67603;DHT22;54417;47.454;18.918;2023-07-13T04:14:04;21.43;82.59
67603;DHT22;54417;47.454;18.918;2023-07-13T04:19:09;21.34;82.94
67603;DHT22;54417;47.454;18.918;2023-07-13T04:24:17;21.12;83.96
67603;DHT22;54417;47.454;18.918;2023-07-13T04:29:27;21.04;84.55
67603;DHT22;54417;47.454;18.918;2023-07-13T04:34:36;21.11;84.81
67603;DHT22;54417;47.454;18.918;2023-07-13T04:39:39;21.04;85.41
67603;DHT22;54417;47.454;18.918;2023-07-13T04:44:49;20.98;86.05
67603;DHT22;54417;47.454;18.918;2023-07-13T04:49:58;20.84;86.65
67603;DHT22;54417;47.454;18.918;2023-07-13T04:55:07;20.77;87.44
67603;DHT22;54417;47.454;18.918;2023-07-13T05:00:13;20.59;88.54
67603;DHT22;54417;47.454;18.918;2023-07-13T05:05:22;20.52;89.73
67603;DHT22;54417;47.454;18.918;2023-07-13T05:10:31;19.82;93.37
67603;DHT22;54417;47.454;18.918;2023-07-13T05:15:36;19.38;96.42
67603;DHT22;54417;47.454;18.918;2023-07-13T05:20:44;19.34;96.63
67603;DHT22;54417;47.454;18.918;2023-07-13T05:25:53;19.16;95.39
67603;DHT22;54417;47.454;18.918;2023-07-13T05:31:03;19.03;94.19
67603;DHT22;54417;47.454;18.918;2023-07-13T05:36:06;18.82;95.68
67603;DHT22;54417;47.454;18.918;2023-07-13T05:41:15;18.71;95.32
67603;DHT22;54417;47.454;18.918;2023-07-13T05:46:27;18.51;95.66
67603;DHT22;54417;47.454;18.918;2023-07-13T05:51:36;18.44;95.73
67603;DHT22;54417;47.454;18.918;2023-07-13T05:56:44;18.30;96.08
67603;DHT22;54417;47.454;18.918;2023-07-13T06:01:50;18.33;96.57
67603;DHT22;54417;47.454;18.918;2023-07-13T06:06:54;18.20;96.46
67603;DHT22;54417;47.454;18.918;2023-07-13T06:11:58;18.13;97.27
67603;DHT22;54417;47.454;18.918;2023-07-13T06:17:03;18.10;97.25
67603;DHT22;54417;47.454;18.918;2023-07-13T06:22:11;18.17;96.77
67603;DHT22;54417;47.454;18.918;2023-07-13T06:27:20;18.50;95.69
67603;DHT22;54417;47.454;18.918;2023-07-13T06:32:30;18.75;92.43
67603;DHT22;54417;47.454;18.918;2023-07-13T06:37:39;19.12;91.66
67603;DHT22;54417;47.454;18.918;2023-07-13T06:42:47;19.36;91.71
67603;DHT22;54417;47.454;18.918;2023-07-13T06:47:57;19.43;89.54
67603;DHT22;54417;47.454;18.918;2023-07-13T06:53:06;19.81;88.31
67603;DHT22;54417;47.454;18.918;2023-07-13T06:58:15;20.52;87.21
67603;DHT22;54417;47.454;18.918;2023-07-13T07:03:25;21.31;88.54
67603;DHT22;54417;47.454;18.918;2023-07-13T07:08:34;21.49;86.05
67603;DHT22;54417;47.454;18.918;2023-07-13T07:13:42;21.66;86.54
67603;DHT22;54417;47.454;18.918;2023-07-13T07:18:52;21.38;87.29
67603;DHT22;54417;47.454;18.918;2023-07-13T07:24:00;21.75;85.61
67603;DHT22;54417;47.454;18.918;2023-07-13T07:29:10;21.86;86.62
67603;DHT22;54417;47.454;18.918;2023-07-13T07:34:23;21.86;84.56
67603;DHT22;54417;47.454;18.918;2023-07-13T07:39:31;22.11;84.39
67603;DHT22;54417;47.454;18.918;2023-07-13T07:44:40;22.28;84.04
67603;DHT22;54417;47.454;18.918;2023-07-13T07:49:50;22.77;83.81
67603;DHT22;54417;47.454;18.918;2023-07-13T07:54:54;23.34;81.70
67603;DHT22;54417;47.454;18.918;2023-07-13T08:00:23;23.49;80.23
67603;DHT22;54417;47.454;18.918;2023-07-13T08:05:36;23.22;78.93
67603;DHT22;54417;47.454;18.918;2023-07-13T08:10:49;23.04;79.05
67603;DHT22;54417;47.454;18.918;2023-07-13T08:15:57;23.27;79.60
67603;DHT22;54417;47.454;18.918;2023-07-13T08:21:07;23.61;78.28
67603;DHT22;54417;47.454;18.918;2023-07-13T08:26:11;23.99;79.13
67603;DHT22;54417;47.454;18.918;2023-07-13T08:31:20;23.86;77.14
67603;DHT22;54417;47.454;18.918;2023-07-13T08:36:30;23.92;77.14
67603;DHT22;54417;47.454;18.918;2023-07-13T08:41:38;23.92;77.29
67603;DHT22;54417;47.454;18.918;2023-07-13T08:46:47;24.37;75.11
67603;DHT22;54417;47.454;18.918;2023-07-13T08:51:59;24.23;75.08
67603;DHT22;54417;47.454;18.918;2023-07-13T08:57:10;24.39;75.21
67603;DHT22;54417;47.454;18.918;2023-07-13T09:02:23;24.52;74.81
67603;DHT22;54417;47.454;18.918;2023-07-13T09:07:38;24.83;74.41
67603;DHT22;54417;47.454;18.918;2023-07-13T09:12:55;25.19;74.69
67603;DHT22;54417;47.454;18.918;2023-07-13T09:18:08;25.04;71.88
67603;DHT22;54417;47.454;18.918;2023-07-13T09:23:20;25.29;73.85
67603;DHT22;54417;47.454;18.918;2023-07-13T09:28:29;25.35;73.92
67603;DHT22;54417;47.454;18.918;2023-07-13T09:33:41;25.65;73.78
67603;DHT22;54417;47.454;18.918;2023-07-13T09:44:08;25.67;70.53
67603;DHT22;54417;47.454;18.918;2023-07-13T09:49:18;25.89;70.70
67603;DHT22;54417;47.454;18.918;2023-07-13T09:54:27;26.07;68.80
67603;DHT22;54417;47.454;18.918;2023-07-13T09:59:40;26.24;69.78
67603;DHT22;54417;47.454;18.918;2023-07-13T10:04:54;26.49;69.92
67603;DHT22;54417;47.454;18.918;2023-07-13T10:10:12;26.65;66.98
67603;DHT22;54417;47.454;18.918;2023-07-13T10:15:23;26.51;67.83
67603;DHT22;54417;47.454;18.918;2023-07-13T10:20:33;26.75;67.93
67603;DHT22;54417;47.454;18.918;2023-07-13T10:25:37;26.82;66.92
67603;DHT22;54417;47.454;18.918;2023-07-13T10:30:48;26.71;67.72
67603;DHT22;54417;47.454;18.918;2023-07-13T10:35:59;27.07;66.61
67603;DHT22;54417;47.454;18.918;2023-07-13T10:41:10;27.34;66.60
67603;DHT22;54417;47.454;18.918;2023-07-13T10:46:22;27.02;65.62
67603;DHT22;54417;47.454;18.918;2023-07-13T10:51:34;26.79;64.27
67603;DHT22;54417;47.454;18.918;2023-07-13T10:56:44;26.99;67.35
67603;DHT22;54417;47.454;18.918;2023-07-13T11:02:00;27.51;66.87
67603;DHT22;54417;47.454;18.918;2023-07-13T11:07:19;27.91;62.66
67603;DHT22;54417;47.454;18.918;2023-07-13T11:17:59;26.72;64.99
67603;DHT22;54417;47.454;18.918;2023-07-13T11:28:43;27.43;64.99
67603;DHT22;54417;47.454;18.918;2023-07-13T11:33:58;27.51;64.64
67603;DHT22;54417;47.454;18.918;2023-07-13T11:39:03;27.58;62.73
67603;DHT22;54417;47.454;18.918;2023-07-13T11:44:15;27.86;63.46
67603;DHT22;54417;47.454;18.918;2023-07-13T11:49:26;28.01;62.48
67603;DHT22;54417;47.454;18.918;2023-07-13T11:54:43;27.72;63.94
67603;DHT22;54417;47.454;18.918;2023-07-13T11:59:58;27.99;62.72
67603;DHT22;54417;47.454;18.918;2023-07-13T12:05:09;28.47;60.23
67603;DHT22;54417;47.454;18.918;2023-07-13T12:10:20;28.31;61.84
67603;DHT22;54417;47.454;18.918;2023-07-13T12:15:28;28.20;61.58
67603;DHT22;54417;47.454;18.918;2023-07-13T12:20:40;28.13;61.48
67603;DHT22;54417;47.454;18.918;2023-07-13T12:25:49;28.35;62.54
67603;DHT22;54417;47.454;18.918;2023-07-13T12:30:58;28.32;62.67
67603;DHT22;54417;47.454;18.918;2023-07-13T12:36:09;28.54;59.41
67603;DHT22;54417;47.454;18.918;2023-07-13T12:41:20;28.40;59.69
67603;DHT22;54417;47.454;18.918;2023-07-13T12:46:30;28.77;58.84
67603;DHT22;54417;47.454;18.918;2023-07-13T12:51:40;29.01;57.95
67603;DHT22;54417;47.454;18.918;2023-07-13T12:56:50;28.71;59.50
67603;DHT22;54417;47.454;18.918;2023-07-13T13:01:59;28.56;59.33
67603;DHT22;54417;47.454;18.918;2023-07-13T13:07:08;28.65;57.28
67603;DHT22;54417;47.454;18.918;2023-07-13T13:12:17;29.26;55.93
67603;DHT22;54417;47.454;18.918;2023-07-13T13:17:27;29.31;54.92
67603;DHT22;54417;47.454;18.918;2023-07-13T13:22:38;29.70;56.43
67603;DHT22;54417;47.454;18.918;2023-07-13T13:27:46;29.45;54.84
67603;DHT22;54417;47.454;18.918;2023-07-13T13:32:55;29.58;54.90
67603;DHT22;54417;47.454;18.918;2023-07-13T13:38:07;29.23;55.57
67603;DHT22;54417;47.454;18.918;2023-07-13T13:43:17;28.75;57.37
67603;DHT22;54417;47.454;18.918;2023-07-13T13:48:26;28.90;58.20
67603;DHT22;54417;47.454;18.918;2023-07-13T13:53:38;29.29;56.55
67603;DHT22;54417;47.454;18.918;2023-07-13T13:58:47;29.66;56.64
67603;DHT22;54417;47.454;18.918;2023-07-13T14:03:55;29.36;56.11
67603;DHT22;54417;47.454;18.918;2023-07-13T14:09:08;29.21;55.08
67603;DHT22;54417;47.454;18.918;2023-07-13T14:14:12;29.12;57.69
67603;DHT22;54417;47.454;18.918;2023-07-13T14:19:22;29.05;57.46
67603;DHT22;54417;47.454;18.918;2023-07-13T14:24:32;29.18;56.77
67603;DHT22;54417;47.454;18.918;2023-07-13T14:29:41;28.94;57.09
67603;DHT22;54417;47.454;18.918;2023-07-13T14:34:49;28.74;56.91
67603;DHT22;54417;47.454;18.918;2023-07-13T14:40:00;29.16;58.33
67603;DHT22;54417;47.454;18.918;2023-07-13T14:45:12;29.01;57.88
67603;DHT22;54417;47.454;18.918;2023-07-13T14:50:23;29.32;57.66
67603;DHT22;54417;47.454;18.918;2023-07-13T14:55:34;29.12;56.60
67603;DHT22;54417;47.454;18.918;2023-07-13T15:00:43;29.15;56.34
67603;DHT22;54417;47.454;18.918;2023-07-13T15:05:53;28.98;56.66
67603;DHT22;54417;47.454;18.918;2023-07-13T15:11:03;29.01;57.62
67603;DHT22;54417;47.454;18.918;2023-07-13T15:16:14;28.90;57.55
67603;DHT22;54417;47.454;18.918;2023-07-13T15:21:24;28.75;59.13
67603;DHT22;54417;47.454;18.918;2023-07-13T15:26:31;28.60;58.69
67603;DHT22;54417;47.454;18.918;2023-07-13T15:31:35;28.32;58.92
67603;DHT22;54417;47.454;18.918;2023-07-13T15:36:46;28.23;60.53
67603;DHT22;54417;47.454;18.918;2023-07-13T15:41:56;27.95;59.32
67603;DHT22;54417;47.454;18.918;2023-07-13T15:47:05;27.82;61.45
67603;DHT22;54417;47.454;18.918;2023-07-13T15:52:17;27.85;60.36
67603;DHT22;54417;47.454;18.918;2023-07-13T15:57:28;27.86;58.78
67603;DHT22;54417;47.454;18.918;2023-07-13T16:02:36;27.98;60.70
67603;DHT22;54417;47.454;18.918;2023-07-13T16:07:46;28.06;61.02
67603;DHT22;54417;47.454;18.918;2023-07-13T16:12:56;28.04;62.11
67603;DHT22;54417;47.454;18.918;2023-07-13T16:17:59;28.05;62.50
67603;DHT22;54417;47.454;18.918;2023-07-13T16:23:03;27.80;61.44
67603;DHT22;54417;47.454;18.918;2023-07-13T16:28:13;27.72;61.09
67603;DHT22;54417;47.454;18.918;2023-07-13T16:33:22;27.46;62.01
67603;DHT22;54417;47.454;18.918;2023-07-13T16:38:31;27.41;62.98
67603;DHT22;54417;47.454;18.918;2023-07-13T16:43:41;27.31;66.33
67603;DHT22;54417;47.454;18.918;2023-07-13T16:48:52;27.13;63.67
67603;DHT22;54417;47.454;18.918;2023-07-13T16:54:00;27.02;65.28
67603;DHT22;54417;47.454;18.918;2023-07-13T16:59:11;26.92;67.12
67603;DHT22;54417;47.454;18.918;2023-07-13T17:04:17;26.61;64.86
67603;DHT22;54417;47.454;18.918;2023-07-13T17:09:28;26.48;68.76
67603;DHT22;54417;47.454;18.918;2023-07-13T17:14:34;26.28;70.04
67603;DHT22;54417;47.454;18.918;2023-07-13T17:19:45;26.00;66.83
67603;DHT22;54417;47.454;18.918;2023-07-13T17:24:54;25.89;69.40
67603;DHT22;54417;47.454;18.918;2023-07-13T17:30:08;25.89;67.85
67603;DHT22;54417;47.454;18.918;2023-07-13T17:35:24;25.87;69.83
67603;DHT22;54417;47.454;18.918;2023-07-13T17:40:33;25.76;71.87
67603;DHT22;54417;47.454;18.918;2023-07-13T17:45:43;25.65;71.68
67603;DHT22;54417;47.454;18.918;2023-07-13T17:50:53;25.34;71.96
67603;DHT22;54417;47.454;18.918;2023-07-13T17:56:05;25.14;70.56
67603;DHT22;54417;47.454;18.918;2023-07-13T18:01:16;25.14;73.04
67603;DHT22;54417;47.454;18.918;2023-07-13T18:06:27;25.03;73.82
67603;DHT22;54417;47.454;18.918;2023-07-13T18:11:37;24.90;75.23
67603;DHT22;54417;47.454;18.918;2023-07-13T18:16:49;24.76;76.04
67603;DHT22;54417;47.454;18.918;2023-07-13T18:21:58;24.47;75.30
67603;DHT22;54417;47.454;18.918;2023-07-13T18:27:08;24.41;76.69
67603;DHT22;54417;47.454;18.918;2023-07-13T18:32:19;24.37;77.45
67603;DHT22;54417;47.454;18.918;2023-07-13T18:37:28;24.18;73.17
67603;DHT22;54417;47.454;18.918;2023-07-13T18:42:38;24.20;77.75
67603;DHT22;54417;47.454;18.918;2023-07-13T18:47:51;24.01;77.27
67603;DHT22;54417;47.454;18.918;2023-07-13T18:53:01;23.75;77.64
67603;DHT22;54417;47.454;18.918;2023-07-13T18:58:10;23.58;78.35
67603;DHT22;54417;47.454;18.918;2023-07-13T19:03:21;23.53;78.66
67603;DHT22;54417;47.454;18.918;2023-07-13T19:08:29;23.41;80.65
67603;DHT22;54417;47.454;18.918;2023-07-13T19:13:38;23.22;79.45
67603;DHT22;54417;47.454;18.918;2023-07-13T19:18:48;23.02;79.13
67603;DHT22;54417;47.454;18.918;2023-07-13T19:23:58;23.00;78.47
67603;DHT22;54417;47.454;18.918;2023-07-13T19:29:02;22.98;77.96
67603;DHT22;54417;47.454;18.918;2023-07-13T19:34:15;22.95;76.03
67603;DHT22;54417;47.454;18.918;2023-07-13T19:39:25;22.91;74.01
67603;DHT22;54417;47.454;18.918;2023-07-13T19:44:34;22.82;72.76
67603;DHT22;54417;47.454;18.918;2023-07-13T19:49:46;22.73;71.58
67603;DHT22;54417;47.454;18.918;2023-07-13T19:54:56;22.72;71.06
67603;DHT22;54417;47.454;18.918;2023-07-13T20:00:01;22.73;69.93
67603;DHT22;54417;47.454;18.918;2023-07-13T20:05:15;22.72;70.56
67603;DHT22;54417;47.454;18.918;2023-07-13T20:10:25;22.69;69.29
67603;DHT22;54417;47.454;18.918;2023-07-13T20:15:36;22.69;69.06
67603;DHT22;54417;47.454;18.918;2023-07-13T20:20:46;22.58;68.55
67603;DHT22;54417;47.454;18.918;2023-07-13T20:25:55;22.59;70.97
67603;DHT22;54417;47.454;18.918;2023-07-13T20:31:00;22.40;72.05
67603;DHT22;54417;47.454;18.918;2023-07-13T20:36:10;22.31;73.44
67603;DHT22;54417;47.454;18.918;2023-07-13T20:41:20;22.21;74.13
67603;DHT22;54417;47.454;18.918;2023-07-13T20:46:24;22.16;74.00
67603;DHT22;54417;47.454;18.918;2023-07-13T20:51:35;22.11;74.24
67603;DHT22;54417;47.454;18.918;2023-07-13T20:56:44;22.07;74.64
67603;DHT22;54417;47.454;18.918;2023-07-13T21:01:52;22.01;74.31
67603;DHT22;54417;47.454;18.918;2023-07-13T21:07:02;21.94;74.33
67603;DHT22;54417;47.454;18.918;2023-07-13T21:12:11;21.86;74.69
67603;DHT22;54417;47.454;18.918;2023-07-13T21:17:19;21.82;74.04
67603;DHT22;54417;47.454;18.918;2023-07-13T21:22:24;21.75;74.21
67603;DHT22;54417;47.454;18.918;2023-07-13T21:27:28;21.67;74.90
67603;DHT22;54417;47.454;18.918;2023-07-13T21:32:36;21.58;75.47
67603;DHT22;54417;47.454;18.918;2023-07-13T21:37:46;21.49;75.93
67603;DHT22;54417;47.454;18.918;2023-07-13T21:42:57;21.48;76.05
67603;DHT22;54417;47.454;18.918;2023-07-13T21:48:07;21.52;76.60
67603;DHT22;54417;47.454;18.918;2023-07-13T21:53:20;21.46;76.63
67603;DHT22;54417;47.454;18.918;2023-07-13T21:58:30;21.45;76.80
67603;DHT22;54417;47.454;18.918;2023-07-13T22:03:38;21.42;77.16
67603;DHT22;54417;47.454;18.918;2023-07-13T22:08:49;21.43;76.74
67603;DHT22;54417;47.454;18.918;2023-07-13T22:13:58;21.41;76.72
67603;DHT22;54417;47.454;18.918;2023-07-13T22:19:10;21.41;76.40
67603;DHT22;54417;47.454;18.918;2023-07-13T22:24:21;21.37;76.29
67603;DHT22;54417;47.454;18.918;2023-07-13T22:29:31;21.32;76.49
67603;DHT22;54417;47.454;18.918;2023-07-13T22:34:40;21.27;76.83
67603;DHT22;54417;47.454;18.918;2023-07-13T22:39:45;21.24;76.64
67603;DHT22;54417;47.454;18.918;2023-07-13T22:44:54;21.20;77.19
67603;DHT22;54417;47.454;18.918;2023-07-13T22:50:04;21.20;76.68
67603;DHT22;54417;47.454;18.918;2023-07-13T22:55:15;21.18;76.79
67603;DHT22;54417;47.454;18.918;2023-07-13T23:00:27;21.12;77.29
67603;DHT22;54417;47.454;18.918;2023-07-13T23:05:36;21.04;77.47
67603;DHT22;54417;47.454;18.918;2023-07-13T23:10:47;20.91;77.99
67603;DHT22;54417;47.454;18.918;2023-07-13T23:16:00;20.81;78.57
67603;DHT22;54417;47.454;18.918;2023-07-13T23:21:09;20.62;79.37
67603;DHT22;54417;47.454;18.918;2023-07-13T23:26:20;20.43;80.04
67603;DHT22;54417;47.454;18.918;2023-07-13T23:31:30;20.28;80.37
67603;DHT22;54417;47.454;18.918;2023-07-13T23:36:39;20.18;80.76
67603;DHT22;54417;47.454;18.918;2023-07-13T23:41:49;20.09;81.28
67603;DHT22;54417;47.454;18.918;2023-07-13T23:46:57;20.06;81.06
67603;DHT22;54417;47.454;18.918;2023-07-13T23:52:09;20.12;80.64
67603;DHT22;54417;47.454;18.918;2023-07-13T23:57:20;20.09;80.80
